createdAt,value
2018-02-03T00:01:07.104Z,22.95
2018-02-03T00:03:37.261Z,22.23
2018-02-03T00:06:07.382Z,17.33
2018-02-03T00:08:39.179Z,16.62
2018-02-03T00:11:09.204Z,14.38
2018-02-03T00:13:39.169Z,24.90
2018-02-03T00:16:10.999Z,17.95
2018-02-03T00:18:40.707Z,18.25
2018-02-03T00:21:10.605Z,18.23
2018-02-03T00:23:40.324Z,23.20
2018-02-03T00:26:10.249Z,20.75
2018-02-03T00:28:40.576Z,19.08
2018-02-03T00:31:11.205Z,17.30
2018-02-03T00:33:41.678Z,18.55
2018-02-03T00:36:13.406Z,16.75
2018-02-03T00:38:43.468Z,17.60
2018-02-03T00:41:13.823Z,13.80
2018-02-03T00:43:43.777Z,12.85
2018-02-03T00:46:13.518Z,18.40
2018-02-03T00:48:46.452Z,12.00
2018-02-03T00:51:16.508Z,14.18
2018-02-03T00:53:46.452Z,11.23
2018-02-03T00:56:17.447Z,10.15
2018-02-03T00:58:48.361Z,12.27
2018-02-03T01:01:18.293Z,11.60
2018-02-03T01:03:48.220Z,12.35
2018-02-03T01:06:18.221Z,11.30
2018-02-03T01:08:48.372Z,13.27
2018-02-03T01:11:18.495Z,12.32
2018-02-03T01:13:48.471Z,13.88
2018-02-03T01:16:19.446Z,8.68
2018-02-03T01:18:50.198Z,11.45
2018-02-03T01:21:20.098Z,11.80
2018-02-03T01:23:50.360Z,9.52
2018-02-03T01:26:20.445Z,10.40
2018-02-03T01:28:50.668Z,9.15
2018-02-03T01:31:20.585Z,8.48
2018-02-03T01:33:50.424Z,13.52
2018-02-03T01:36:20.649Z,22.80
2018-02-03T01:38:50.562Z,12.18
2018-02-03T01:41:20.494Z,10.38
2018-02-03T01:43:50.679Z,9.38
2018-02-03T01:46:20.688Z,8.95
2018-02-03T01:48:51.148Z,10.80
2018-02-03T01:51:22.462Z,12.48
2018-02-03T01:53:52.461Z,11.43
2018-02-03T01:56:22.533Z,12.70
2018-02-03T01:58:52.532Z,11.60
2018-02-03T02:01:22.535Z,9.48
2018-02-03T02:03:52.672Z,10.35
2018-02-03T02:06:22.088Z,10.18
2018-02-03T02:08:52.164Z,12.15
2018-02-03T02:11:22.128Z,10.93
2018-02-03T02:13:53.377Z,11.05
2018-02-03T02:16:23.816Z,14.87
2018-02-03T02:21:28.343Z,10.43
2018-02-03T02:23:58.402Z,14.20
2018-02-03T02:26:29.257Z,9.55
2018-02-03T02:28:59.734Z,11.20
2018-02-03T02:31:29.836Z,10.75
2018-02-03T02:33:59.837Z,10.40
2018-02-03T02:36:29.961Z,12.60
2018-02-03T02:38:59.917Z,14.48
2018-02-03T02:41:30.541Z,14.48
2018-02-03T02:44:00.560Z,10.80
2018-02-03T02:46:30.481Z,13.48
2018-02-03T02:49:00.436Z,10.02
2018-02-03T02:54:09.182Z,15.02
2018-02-03T02:56:39.510Z,14.82
2018-02-03T02:59:09.389Z,11.70
2018-02-03T03:01:40.205Z,11.75
2018-02-03T03:04:10.166Z,13.52
2018-02-03T03:06:40.167Z,13.50
2018-02-03T03:09:10.066Z,14.20
2018-02-03T03:11:40.053Z,12.13
2018-02-03T03:14:10.084Z,12.98
2018-02-03T03:16:39.984Z,16.45
2018-02-03T03:19:10.175Z,17.42
2018-02-03T03:21:40.133Z,15.48
2018-02-03T03:24:10.110Z,16.37
2018-02-03T03:26:40.047Z,12.50
2018-02-03T03:29:09.979Z,14.60
2018-02-03T03:31:40.165Z,14.45
2018-02-03T03:34:10.062Z,11.55
2018-02-03T03:36:40.033Z,11.43
2018-02-03T03:39:09.991Z,15.02
2018-02-03T03:41:39.925Z,15.40
2018-02-03T03:44:09.908Z,13.50
2018-02-03T03:46:39.190Z,15.93
2018-02-03T03:49:08.788Z,16.35
2018-02-03T03:51:42.262Z,13.10
2018-02-03T03:54:12.330Z,16.55
2018-02-03T03:56:42.361Z,16.65
2018-02-03T03:59:12.276Z,15.50
2018-02-03T04:01:42.236Z,15.93
2018-02-03T04:04:12.175Z,18.35
2018-02-03T04:06:42.175Z,19.02
2018-02-03T04:09:12.459Z,17.30
2018-02-03T04:11:42.369Z,13.95
2018-02-03T04:14:12.575Z,14.65
2018-02-03T04:16:42.317Z,12.65
2018-02-03T04:19:12.245Z,13.27
2018-02-03T04:21:41.898Z,13.57
2018-02-03T04:24:11.785Z,14.52
2018-02-03T04:26:41.761Z,14.45
2018-02-03T04:29:11.104Z,13.85
2018-02-03T04:31:41.104Z,14.35
2018-02-03T04:34:11.038Z,15.25
2018-02-03T04:36:41.134Z,19.23
2018-02-03T04:39:10.872Z,15.80
2018-02-03T04:41:40.865Z,15.82
2018-02-03T04:44:10.820Z,15.70
2018-02-03T04:46:44.818Z,19.65
2018-02-03T04:49:14.762Z,13.50
2018-02-03T04:51:44.869Z,14.48
2018-02-03T04:54:15.809Z,18.55
2018-02-03T04:56:47.653Z,17.98
2018-02-03T04:59:17.703Z,20.60
2018-02-03T05:01:47.777Z,15.05
2018-02-03T05:04:19.523Z,16.17
2018-02-03T05:06:49.201Z,18.80
2018-02-03T05:09:19.115Z,17.80
2018-02-03T05:11:49.037Z,14.80
2018-02-03T05:14:19.808Z,18.27
2018-02-03T05:16:49.804Z,17.85
2018-02-03T05:19:34.994Z,15.75
2018-02-03T05:24:49.951Z,19.40
2018-02-03T05:27:22.737Z,17.48
2018-02-03T05:29:57.863Z,19.60
2018-02-03T05:32:31.033Z,18.08
2018-02-03T05:35:04.174Z,18.83
2018-02-03T05:37:36.412Z,23.10
2018-02-03T05:40:05.998Z,17.85
2018-02-03T05:42:35.779Z,22.55
2018-02-03T05:45:08.870Z,21.45
2018-02-03T05:47:38.709Z,17.52
2018-02-03T05:50:08.458Z,13.93
2018-02-03T05:52:39.040Z,22.02
2018-02-03T05:55:08.933Z,18.58
2018-02-03T05:57:38.865Z,16.45
2018-02-03T06:00:21.728Z,20.98
2018-02-03T06:02:51.723Z,18.85
2018-02-03T06:05:44.124Z,19.98
2018-02-03T06:08:14.102Z,24.25
2018-02-03T06:13:44.279Z,15.35
2018-02-03T06:16:14.215Z,16.05
2018-02-03T06:18:44.172Z,19.25
2018-02-03T06:21:13.854Z,17.17
2018-02-03T06:23:47.510Z,16.75
2018-02-03T06:26:19.095Z,16.70
2018-02-03T06:28:49.032Z,17.45
2018-02-03T06:31:19.121Z,21.08
2018-02-03T06:33:49.446Z,19.37
2018-02-03T06:36:20.132Z,15.50
2018-02-03T06:38:50.821Z,18.35
2018-02-03T06:41:20.614Z,17.75
2018-02-03T06:43:52.456Z,15.35
2018-02-03T06:46:22.448Z,18.30
2018-02-03T06:57:50.846Z,20.02
2018-02-03T07:00:22.551Z,17.05
2018-02-03T07:11:17.586Z,19.58
2018-02-03T07:13:48.392Z,16.10
2018-02-03T07:16:20.621Z,16.05
2018-02-03T07:18:53.164Z,14.75
2018-02-03T07:21:23.114Z,19.83
2018-02-03T07:31:06.673Z,15.57
2018-02-03T07:36:31.184Z,16.45
2018-02-03T07:39:01.252Z,14.35
2018-02-03T07:41:44.672Z,18.05
2018-02-03T07:49:53.443Z,16.67
2018-02-03T07:52:31.253Z,12.32
2018-02-03T07:55:03.921Z,14.75
2018-02-03T07:57:35.544Z,12.30
2018-02-03T08:00:06.035Z,16.62
2018-02-03T08:02:39.934Z,14.35
2018-02-03T08:05:18.242Z,16.15
2018-02-03T08:07:57.255Z,20.35
2018-02-03T08:10:30.856Z,15.73
2018-02-03T08:13:01.728Z,17.05
2018-02-03T08:24:21.087Z,15.00
2018-02-03T08:27:25.472Z,21.58
2018-02-03T08:38:10.203Z,19.08
2018-02-03T08:53:47.354Z,26.00
2018-02-03T09:21:28.769Z,16.08
2018-02-03T09:32:39.756Z,13.18
2018-02-03T09:35:24.880Z,14.82
2018-02-03T09:43:52.931Z,13.15
2018-02-03T09:46:23.182Z,15.98
2018-02-03T09:48:55.518Z,12.48
2018-02-03T09:54:28.586Z,17.65
2018-02-03T09:57:08.402Z,14.30
2018-02-03T09:59:39.967Z,16.67
2018-02-03T10:02:25.867Z,18.83
2018-02-03T10:07:31.856Z,18.45
2018-02-03T10:10:21.921Z,22.00
2018-02-03T10:13:09.069Z,15.68
2018-02-03T10:18:37.776Z,19.50
2018-02-03T10:23:51.929Z,12.88
2018-02-03T10:26:37.967Z,20.10
2018-02-03T10:29:08.811Z,10.40
2018-02-03T10:31:40.267Z,13.48
2018-02-03T10:34:38.349Z,12.75
2018-02-03T10:48:40.941Z,16.67
2018-02-03T10:53:58.334Z,14.30
2018-02-03T10:59:25.704Z,16.15
2018-02-03T11:05:05.180Z,14.43
2018-02-03T11:07:37.054Z,13.40
2018-02-03T11:12:43.345Z,15.73
2018-02-03T11:15:24.699Z,18.60
2018-02-03T11:17:54.632Z,13.05
2018-02-03T11:20:24.883Z,11.07
2018-02-03T11:22:58.182Z,13.43
2018-02-03T11:25:29.077Z,14.93
2018-02-03T11:28:02.481Z,12.25
2018-02-03T11:53:59.509Z,10.73
2018-02-03T12:12:20.609Z,16.37
2018-02-03T12:17:36.222Z,15.45
2018-02-03T12:20:10.402Z,13.30
2018-02-03T12:22:40.009Z,14.05
2018-02-03T12:25:22.906Z,13.10
2018-02-03T12:27:56.712Z,12.93
2018-02-03T12:30:26.827Z,13.62
2018-02-03T12:32:56.890Z,13.25
2018-02-03T12:41:37.873Z,13.32
2018-02-03T12:53:14.110Z,14.65
2018-02-03T12:58:40.556Z,15.50
2018-02-03T13:01:27.063Z,14.52
2018-02-03T13:03:59.126Z,13.15
2018-02-03T13:06:29.747Z,15.27
2018-02-03T13:09:08.584Z,17.30
2018-02-03T13:14:29.401Z,19.58
2018-02-03T13:22:37.049Z,13.98
2018-02-03T13:27:42.048Z,15.52
2018-02-03T13:30:20.229Z,14.40
2018-02-03T13:39:13.947Z,14.93
2018-02-03T13:44:37.707Z,14.25
2018-02-03T14:01:37.980Z,11.77
2018-02-03T14:09:32.979Z,12.60
2018-02-03T14:14:37.169Z,15.55
2018-02-03T14:17:07.366Z,17.52
2018-02-03T14:19:38.927Z,16.02
2018-02-03T14:22:09.314Z,12.90
2018-02-03T14:24:45.140Z,15.98
2018-02-03T14:27:14.810Z,16.12
2018-02-03T14:29:44.634Z,15.55
2018-02-03T14:32:17.006Z,16.10
2018-02-03T14:34:48.247Z,12.80
2018-02-03T14:37:18.723Z,15.63
2018-02-03T14:39:48.890Z,14.80
2018-02-03T14:42:18.949Z,10.13
2018-02-03T14:44:48.797Z,16.10
2018-02-03T14:47:19.702Z,12.02
2018-02-03T14:49:49.519Z,11.82
2018-02-03T14:52:19.379Z,12.75
2018-02-03T14:54:49.263Z,10.98
2018-02-03T14:57:19.076Z,9.93
2018-02-03T14:59:48.890Z,12.88
2018-02-03T15:02:19.045Z,13.15
2018-02-03T15:04:49.018Z,13.13
2018-02-03T15:07:18.821Z,10.20
2018-02-03T15:09:48.635Z,12.27
2018-02-03T15:12:18.529Z,13.57
2018-02-03T15:14:48.990Z,13.73
2018-02-03T15:17:18.855Z,13.93
2018-02-03T15:19:48.700Z,15.55
2018-02-03T15:22:19.155Z,13.55
2018-02-03T15:24:49.826Z,14.60
2018-02-03T15:27:19.951Z,15.57
2018-02-03T15:29:50.855Z,17.45
2018-02-03T15:32:20.833Z,14.10
2018-02-03T15:34:50.667Z,15.73
2018-02-03T15:37:20.208Z,11.68
2018-02-03T15:39:50.121Z,13.48
2018-02-03T15:42:19.948Z,15.70
2018-02-03T15:44:50.234Z,22.62
2018-02-03T15:47:20.060Z,13.95
2018-02-03T15:49:49.897Z,16.30
2018-02-03T15:52:19.676Z,14.93
2018-02-03T15:54:49.585Z,14.98
2018-02-03T15:57:19.204Z,12.93
2018-02-03T15:59:49.061Z,16.95
2018-02-03T16:02:18.621Z,13.93
2018-02-03T16:04:48.442Z,14.32
2018-02-03T16:07:18.347Z,14.38
2018-02-03T16:09:48.148Z,13.00
2018-02-03T16:12:17.717Z,13.07
2018-02-03T16:14:47.095Z,16.20
2018-02-03T16:17:16.896Z,12.85
2018-02-03T16:19:46.688Z,14.32
2018-02-03T16:22:16.618Z,12.00
2018-02-03T16:24:46.469Z,11.88
2018-02-03T16:27:16.775Z,17.77
2018-02-03T16:29:46.373Z,14.63
2018-02-03T16:32:16.392Z,17.55
2018-02-03T16:34:46.280Z,15.88
2018-02-03T16:37:27.299Z,13.50
2018-02-03T16:40:03.936Z,14.35
2018-02-03T16:42:36.403Z,12.13
2018-02-03T16:45:06.510Z,15.52
2018-02-03T16:47:36.375Z,15.80
2018-02-03T16:50:06.687Z,13.62
2018-02-03T16:52:36.653Z,12.43
2018-02-03T16:55:08.122Z,18.95
2018-02-03T16:57:37.910Z,12.60
2018-02-03T17:00:09.376Z,20.70
2018-02-03T17:02:39.274Z,12.93
2018-02-03T17:05:09.888Z,15.95
2018-02-03T17:07:39.804Z,12.45
2018-02-03T17:10:19.485Z,12.35
2018-02-03T17:13:05.517Z,14.65
2018-02-03T17:15:37.789Z,18.30
2018-02-03T17:18:08.136Z,13.62
2018-02-03T17:20:42.238Z,15.05
2018-02-03T17:23:12.842Z,14.07
2018-02-03T17:25:42.768Z,13.25
2018-02-03T17:28:13.291Z,16.23
2018-02-03T17:30:43.251Z,14.60
2018-02-03T17:33:13.088Z,14.90
2018-02-03T17:35:43.015Z,22.13
2018-02-03T17:38:18.395Z,16.15
2018-02-03T17:40:48.379Z,15.68
2018-02-03T17:43:18.325Z,14.07
2018-02-03T17:45:53.240Z,16.62
2018-02-03T17:48:24.682Z,17.10
2018-02-03T17:50:54.483Z,15.82
2018-02-03T17:53:33.263Z,17.35
2018-02-03T17:56:08.686Z,17.33
2018-02-03T17:58:38.564Z,14.65
2018-02-03T18:01:08.624Z,14.63
2018-02-03T18:03:39.062Z,18.00
2018-02-03T18:06:08.989Z,13.62
2018-02-03T18:08:38.678Z,17.30
2018-02-03T18:11:08.406Z,15.57
2018-02-03T18:13:39.156Z,16.35
2018-02-03T18:16:10.736Z,16.37
2018-02-03T18:18:40.752Z,13.88
2018-02-03T18:21:10.658Z,13.07
2018-02-03T18:23:54.102Z,15.07
2018-02-03T18:26:25.763Z,18.00
2018-02-03T18:28:55.882Z,15.95
2018-02-03T18:31:27.179Z,16.08
2018-02-03T18:33:57.407Z,17.52
2018-02-03T18:36:26.714Z,14.38
2018-02-03T18:38:56.355Z,14.87
2018-02-03T18:41:26.304Z,13.73
2018-02-03T18:43:55.834Z,16.98
2018-02-03T18:46:25.929Z,16.05
2018-02-03T18:48:55.599Z,17.40
2018-02-03T18:51:25.682Z,16.15
2018-02-03T18:53:55.628Z,18.92
2018-02-03T18:56:25.557Z,15.50
2018-02-03T18:58:55.422Z,15.18
2018-02-03T19:01:26.374Z,14.50
2018-02-03T19:03:56.349Z,16.50
2018-02-03T19:06:26.280Z,17.60
2018-02-03T19:08:56.639Z,16.33
2018-02-03T19:11:26.477Z,19.77
2018-02-03T19:13:56.000Z,15.55
2018-02-03T19:16:26.642Z,16.62
2018-02-03T19:18:56.237Z,12.98
2018-02-03T19:21:26.771Z,12.55
2018-02-03T19:23:56.658Z,13.93
2018-02-03T19:26:26.985Z,12.25
2018-02-03T19:28:56.916Z,18.02
2018-02-03T19:31:26.810Z,10.93
2018-02-03T19:39:08.875Z,13.98
2018-02-03T19:41:41.696Z,14.45
2018-02-03T19:44:11.590Z,15.07
2018-02-03T19:46:41.452Z,13.88
2018-02-03T19:49:11.510Z,16.55
2018-02-03T19:51:41.444Z,15.68
2018-02-03T19:54:11.583Z,16.27
2018-02-03T19:56:41.574Z,16.37
2018-02-03T19:59:11.507Z,17.12
2018-02-03T20:01:41.414Z,17.98
2018-02-03T20:04:11.564Z,14.40
2018-02-03T20:06:41.471Z,12.82
2018-02-03T20:09:11.749Z,17.67
2018-02-03T20:11:41.653Z,19.23
2018-02-03T20:14:11.543Z,14.15
2018-02-03T20:16:41.502Z,15.98
2018-02-03T20:19:11.480Z,17.92
2018-02-03T20:21:41.342Z,17.50
2018-02-03T20:24:11.217Z,18.58
2018-02-03T20:26:41.052Z,21.55
2018-02-03T20:29:11.086Z,12.57
2018-02-03T20:31:41.009Z,22.52
2018-02-03T20:34:10.854Z,19.27
2018-02-03T20:36:40.875Z,18.62
2018-02-03T20:39:10.789Z,19.00
2018-02-03T20:41:40.106Z,18.02
2018-02-03T20:44:09.954Z,19.10
2018-02-03T20:46:39.775Z,25.25
2018-02-03T20:49:09.676Z,23.50
2018-02-03T20:51:39.474Z,21.27
2018-02-03T20:54:09.287Z,23.95
2018-02-03T20:56:38.959Z,21.12
2018-02-03T20:59:08.830Z,19.45
2018-02-03T21:01:38.660Z,21.33
2018-02-03T21:04:08.472Z,18.92
2018-02-03T21:06:38.287Z,19.58
2018-02-03T21:09:08.105Z,19.85
2018-02-03T21:11:38.011Z,19.52
2018-02-03T21:14:07.869Z,19.35
2018-02-03T21:16:37.682Z,19.58
2018-02-03T21:19:07.508Z,19.33
2018-02-03T21:21:37.338Z,16.50
2018-02-03T21:24:07.180Z,22.48
2018-02-03T21:26:37.073Z,17.27
2018-02-03T21:29:06.905Z,16.77
2018-02-03T21:31:36.767Z,20.92
2018-02-03T21:34:06.597Z,21.05
2018-02-03T21:36:36.469Z,20.33
2018-02-03T21:39:06.004Z,16.17
2018-02-03T21:41:35.810Z,20.62
2018-02-03T21:44:05.621Z,16.02
2018-02-03T21:46:35.433Z,21.90
2018-02-03T21:49:05.013Z,18.98
2018-02-03T21:51:35.106Z,19.15
2018-02-03T21:54:05.327Z,19.00
2018-02-03T21:56:35.134Z,19.27
2018-02-03T21:59:04.990Z,18.35
2018-02-03T22:01:34.935Z,19.55
2018-02-03T22:04:04.830Z,24.20
2018-02-03T22:06:34.941Z,19.37
2018-02-03T22:09:04.195Z,20.70
2018-02-03T22:11:34.065Z,20.67
2018-02-03T22:14:03.958Z,20.20
2018-02-03T22:16:33.766Z,21.90
2018-02-03T22:19:03.718Z,19.33
2018-02-03T22:21:33.609Z,18.52
2018-02-03T22:24:03.495Z,19.60
2018-02-03T22:26:33.569Z,18.10
2018-02-03T22:29:03.466Z,20.05
2018-02-03T22:31:33.343Z,20.37
2018-02-03T22:34:03.299Z,19.60
2018-02-03T22:36:33.116Z,22.00
2018-02-03T22:39:02.961Z,19.23
2018-02-03T22:41:32.778Z,19.08
2018-02-03T22:44:02.599Z,20.42
2018-02-03T22:46:32.729Z,22.23
2018-02-03T22:49:02.625Z,18.23
2018-02-03T22:51:33.545Z,20.58
2018-02-03T22:54:03.370Z,19.62
2018-02-03T22:56:33.082Z,22.27
2018-02-03T22:59:02.709Z,24.65
2018-02-03T23:01:33.226Z,21.15
2018-02-03T23:04:03.066Z,19.67
2018-02-03T23:06:33.144Z,20.23
2018-02-03T23:09:02.961Z,21.95
2018-02-03T23:11:32.836Z,25.30
2018-02-03T23:14:03.269Z,19.52
2018-02-03T23:16:33.847Z,20.37
2018-02-03T23:19:04.113Z,20.80
2018-02-03T23:21:35.105Z,22.67
2018-02-03T23:31:56.962Z,23.80
2018-02-03T23:37:02.086Z,24.08
2018-02-03T23:39:35.909Z,24.17
2018-02-03T23:42:07.065Z,24.12
2018-02-03T23:44:37.361Z,22.55
2018-02-03T23:47:09.624Z,25.48
2018-02-03T23:49:39.679Z,24.60
2018-02-03T23:52:16.560Z,27.37
2018-02-03T23:54:48.410Z,23.92
2018-02-03T23:57:22.985Z,25.67
2018-02-03T23:59:58.762Z,24.33
